sensor_id;sensor_type;location;lat;lon;timestamp;temperature;humidity
44695;DHT22;32845;59.422;17.930;2022-12-05T00:00:43;-1.10;99.90
44695;DHT22;32845;59.422;17.930;2022-12-05T00:05:13;-1.20;99.90
44695;DHT22;32845;59.422;17.930;2022-12-05T00:09:44;-1.20;99.90
44695;DHT22;32845;59.422;17.930;2022-12-05T00:14:15;-1.20;99.90
44695;DHT22;32845;59.422;17.930;2022-12-05T00:18:46;-1.20;99.90
44695;DHT22;32845;59.422;17.930;2022-12-05T00:23:17;-1.20;99.90
44695;DHT22;32845;59.422;17.930;2022-12-05T00:27:48;-1.20;99.90
44695;DHT22;32845;59.422;17.930;2022-12-05T00:32:18;-1.20;99.90
44695;DHT22;32845;59.422;17.930;2022-12-05T00:36:49;-1.20;99.90
44695;DHT22;32845;59.422;17.930;2022-12-05T00:41:23;-1.20;99.90
44695;DHT22;32845;59.422;17.930;2022-12-05T00:45:54;-1.20;99.90
44695;DHT22;32845;59.422;17.930;2022-12-05T00:50:24;-1.20;99.90
44695;DHT22;32845;59.422;17.930;2022-12-05T00:54:55;-1.20;99.90
44695;DHT22;32845;59.422;17.930;2022-12-05T01:04:53;-1.20;99.90
44695;DHT22;32845;59.422;17.930;2022-12-05T01:09:24;-1.20;99.90
44695;DHT22;32845;59.422;17.930;2022-12-05T01:13:55;-1.20;99.90
44695;DHT22;32845;59.422;17.930;2022-12-05T01:18:27;-1.20;99.90
44695;DHT22;32845;59.422;17.930;2022-12-05T01:22:58;-1.20;99.90
44695;DHT22;32845;59.422;17.930;2022-12-05T01:27:28;-1.20;99.90
44695;DHT22;32845;59.422;17.930;2022-12-05T01:31:59;-1.20;99.90
44695;DHT22;32845;59.422;17.930;2022-12-05T01:36:30;-1.20;99.90
44695;DHT22;32845;59.422;17.930;2022-12-05T01:41:03;-1.20;99.90
44695;DHT22;32845;59.422;17.930;2022-12-05T01:45:38;-1.20;99.90
44695;DHT22;32845;59.422;17.930;2022-12-05T01:50:09;-1.10;99.90
44695;DHT22;32845;59.422;17.930;2022-12-05T01:54:42;-1.10;99.90
44695;DHT22;32845;59.422;17.930;2022-12-05T01:59:15;-1.10;99.90
44695;DHT22;32845;59.422;17.930;2022-12-05T02:03:49;-1.10;99.90
44695;DHT22;32845;59.422;17.930;2022-12-05T02:08:21;-1.10;99.90
44695;DHT22;32845;59.422;17.930;2022-12-05T02:12:52;-1.10;99.90
44695;DHT22;32845;59.422;17.930;2022-12-05T02:32:17;-1.00;99.90
44695;DHT22;32845;59.422;17.930;2022-12-05T02:41:40;-1.00;99.90
44695;DHT22;32845;59.422;17.930;2022-12-05T02:46:19;-1.00;99.90
44695;DHT22;32845;59.422;17.930;2022-12-05T02:50:51;-1.00;99.90
44695;DHT22;32845;59.422;17.930;2022-12-05T02:55:25;-1.00;99.90
44695;DHT22;32845;59.422;17.930;2022-12-05T02:59:57;-1.00;99.90
44695;DHT22;32845;59.422;17.930;2022-12-05T03:04:29;-1.00;99.90
44695;DHT22;32845;59.422;17.930;2022-12-05T03:09:05;-1.00;99.90
44695;DHT22;32845;59.422;17.930;2022-12-05T03:13:49;-1.00;99.90
44695;DHT22;32845;59.422;17.930;2022-12-05T03:18:28;-1.00;99.90
44695;DHT22;32845;59.422;17.930;2022-12-05T03:23:10;-0.90;99.90
44695;DHT22;32845;59.422;17.930;2022-12-05T03:28:08;-0.90;99.90
44695;DHT22;32845;59.422;17.930;2022-12-05T03:32:44;-0.90;99.90
44695;DHT22;32845;59.422;17.930;2022-12-05T03:37:26;-0.90;99.90
44695;DHT22;32845;59.422;17.930;2022-12-05T03:42:09;-0.90;99.90
44695;DHT22;32845;59.422;17.930;2022-12-05T03:46:49;-0.90;99.90
44695;DHT22;32845;59.422;17.930;2022-12-05T03:51:27;-0.90;99.90
44695;DHT22;32845;59.422;17.930;2022-12-05T03:56:07;-0.90;99.90
44695;DHT22;32845;59.422;17.930;2022-12-05T04:00:42;-0.90;99.90
44695;DHT22;32845;59.422;17.930;2022-12-05T04:10:09;-0.90;99.90
44695;DHT22;32845;59.422;17.930;2022-12-05T04:14:45;-0.90;99.90
44695;DHT22;32845;59.422;17.930;2022-12-05T04:24:31;-0.90;99.90
44695;DHT22;32845;59.422;17.930;2022-12-05T04:29:30;-0.90;99.90
44695;DHT22;32845;59.422;17.930;2022-12-05T04:34:05;-0.90;99.90
44695;DHT22;32845;59.422;17.930;2022-12-05T04:39:02;-0.90;99.90
44695;DHT22;32845;59.422;17.930;2022-12-05T04:43:37;-0.90;99.90
44695;DHT22;32845;59.422;17.930;2022-12-05T04:48:14;-0.90;99.90
44695;DHT22;32845;59.422;17.930;2022-12-05T04:52:49;-0.90;99.90
44695;DHT22;32845;59.422;17.930;2022-12-05T04:57:36;-0.90;99.90
44695;DHT22;32845;59.422;17.930;2022-12-05T05:02:12;-0.90;99.90
44695;DHT22;32845;59.422;17.930;2022-12-05T05:06:44;-0.90;99.90
44695;DHT22;32845;59.422;17.930;2022-12-05T05:15:45;-0.90;99.90
44695;DHT22;32845;59.422;17.930;2022-12-05T05:20:16;-0.90;99.90
44695;DHT22;32845;59.422;17.930;2022-12-05T05:24:56;-0.90;99.90
44695;DHT22;32845;59.422;17.930;2022-12-05T05:29:27;-0.90;99.90
44695;DHT22;32845;59.422;17.930;2022-12-05T05:33:58;-0.90;99.90
44695;DHT22;32845;59.422;17.930;2022-12-05T05:38:29;-0.90;99.90
44695;DHT22;32845;59.422;17.930;2022-12-05T05:43:09;-0.90;99.90
44695;DHT22;32845;59.422;17.930;2022-12-05T05:47:41;-0.90;99.90
44695;DHT22;32845;59.422;17.930;2022-12-05T05:52:11;-1.00;99.90
44695;DHT22;32845;59.422;17.930;2022-12-05T05:56:42;-0.90;99.90
44695;DHT22;32845;59.422;17.930;2022-12-05T06:01:15;-0.90;99.90
44695;DHT22;32845;59.422;17.930;2022-12-05T06:05:56;-0.90;99.90
44695;DHT22;32845;59.422;17.930;2022-12-05T06:10:26;-0.90;99.90
44695;DHT22;32845;59.422;17.930;2022-12-05T06:14:59;-1.00;99.90
44695;DHT22;32845;59.422;17.930;2022-12-05T06:19:30;-1.00;99.90
44695;DHT22;32845;59.422;17.930;2022-12-05T06:24:05;-1.00;99.90
44695;DHT22;32845;59.422;17.930;2022-12-05T06:28:36;-1.00;99.90
44695;DHT22;32845;59.422;17.930;2022-12-05T06:33:09;-1.00;99.90
44695;DHT22;32845;59.422;17.930;2022-12-05T06:37:40;-1.00;99.90
44695;DHT22;32845;59.422;17.930;2022-12-05T06:42:11;-0.90;99.90
44695;DHT22;32845;59.422;17.930;2022-12-05T06:46:42;-0.90;99.90
44695;DHT22;32845;59.422;17.930;2022-12-05T06:51:15;-0.90;99.90
44695;DHT22;32845;59.422;17.930;2022-12-05T06:56:00;-0.90;99.90
44695;DHT22;32845;59.422;17.930;2022-12-05T07:00:31;-0.90;99.90
44695;DHT22;32845;59.422;17.930;2022-12-05T07:05:20;-0.90;99.90
44695;DHT22;32845;59.422;17.930;2022-12-05T07:09:51;-0.90;99.90
44695;DHT22;32845;59.422;17.930;2022-12-05T07:14:28;-0.90;99.90
44695;DHT22;32845;59.422;17.930;2022-12-05T07:18:58;-0.90;99.90
44695;DHT22;32845;59.422;17.930;2022-12-05T07:23:34;-0.90;99.90
44695;DHT22;32845;59.422;17.930;2022-12-05T07:28:05;-0.80;99.90
44695;DHT22;32845;59.422;17.930;2022-12-05T07:32:35;-0.80;99.90
44695;DHT22;32845;59.422;17.930;2022-12-05T07:37:06;-0.90;99.90
44695;DHT22;32845;59.422;17.930;2022-12-05T07:41:37;-0.90;99.90
44695;DHT22;32845;59.422;17.930;2022-12-05T07:46:09;-0.90;99.90
44695;DHT22;32845;59.422;17.930;2022-12-05T07:50:42;-0.90;99.90
44695;DHT22;32845;59.422;17.930;2022-12-05T07:55:18;-0.90;99.90
44695;DHT22;32845;59.422;17.930;2022-12-05T07:59:48;-0.80;99.90
44695;DHT22;32845;59.422;17.930;2022-12-05T08:04:19;-0.80;99.90
44695;DHT22;32845;59.422;17.930;2022-12-05T08:08:50;-0.80;99.90
44695;DHT22;32845;59.422;17.930;2022-12-05T08:13:21;-0.80;99.90
44695;DHT22;32845;59.422;17.930;2022-12-05T08:17:52;-0.80;99.90
44695;DHT22;32845;59.422;17.930;2022-12-05T08:22:22;-0.80;99.90
44695;DHT22;32845;59.422;17.930;2022-12-05T08:26:53;-0.80;99.90
44695;DHT22;32845;59.422;17.930;2022-12-05T08:31:25;-0.70;99.90
44695;DHT22;32845;59.422;17.930;2022-12-05T08:35:56;-0.70;99.90
44695;DHT22;32845;59.422;17.930;2022-12-05T08:40:26;-0.60;99.90
44695;DHT22;32845;59.422;17.930;2022-12-05T08:45:02;-0.60;99.90
44695;DHT22;32845;59.422;17.930;2022-12-05T08:49:33;-0.60;99.90
44695;DHT22;32845;59.422;17.930;2022-12-05T08:54:04;-0.60;99.90
44695;DHT22;32845;59.422;17.930;2022-12-05T08:58:35;-0.50;99.90
44695;DHT22;32845;59.422;17.930;2022-12-05T09:03:10;-0.50;99.90
44695;DHT22;32845;59.422;17.930;2022-12-05T09:07:41;-0.50;99.90
44695;DHT22;32845;59.422;17.930;2022-12-05T09:12:12;-0.50;99.90
44695;DHT22;32845;59.422;17.930;2022-12-05T09:16:45;-0.50;99.90
44695;DHT22;32845;59.422;17.930;2022-12-05T09:21:19;-0.40;99.90
44695;DHT22;32845;59.422;17.930;2022-12-05T09:25:53;-0.40;99.90
44695;DHT22;32845;59.422;17.930;2022-12-05T09:30:27;-0.30;99.90
44695;DHT22;32845;59.422;17.930;2022-12-05T09:34:58;-0.30;99.90
44695;DHT22;32845;59.422;17.930;2022-12-05T09:39:28;-0.30;99.90
44695;DHT22;32845;59.422;17.930;2022-12-05T09:44:02;-0.30;99.90
44695;DHT22;32845;59.422;17.930;2022-12-05T09:48:37;-0.30;99.90
44695;DHT22;32845;59.422;17.930;2022-12-05T09:53:21;-0.30;99.90
44695;DHT22;32845;59.422;17.930;2022-12-05T09:57:56;-0.30;99.90
44695;DHT22;32845;59.422;17.930;2022-12-05T10:02:49;-0.20;99.90
44695;DHT22;32845;59.422;17.930;2022-12-05T10:07:38;-0.20;99.90
44695;DHT22;32845;59.422;17.930;2022-12-05T10:12:18;-0.20;99.90
44695;DHT22;32845;59.422;17.930;2022-12-05T10:16:55;-0.20;99.90
44695;DHT22;32845;59.422;17.930;2022-12-05T10:21:33;-0.20;99.90
44695;DHT22;32845;59.422;17.930;2022-12-05T10:26:09;-0.20;99.90
44695;DHT22;32845;59.422;17.930;2022-12-05T10:30:41;-0.20;99.90
44695;DHT22;32845;59.422;17.930;2022-12-05T10:35:25;-0.20;99.90
44695;DHT22;32845;59.422;17.930;2022-12-05T10:39:57;-0.10;99.90
44695;DHT22;32845;59.422;17.930;2022-12-05T10:44:27;-0.10;99.90
44695;DHT22;32845;59.422;17.930;2022-12-05T10:48:58;0.00;99.90
44695;DHT22;32845;59.422;17.930;2022-12-05T10:53:45;0.00;99.90
44695;DHT22;32845;59.422;17.930;2022-12-05T10:58:24;0.00;99.90
44695;DHT22;32845;59.422;17.930;2022-12-05T11:02:55;0.00;99.90
44695;DHT22;32845;59.422;17.930;2022-12-05T11:12:27;0.00;99.90
44695;DHT22;32845;59.422;17.930;2022-12-05T11:17:00;0.00;99.90
44695;DHT22;32845;59.422;17.930;2022-12-05T11:21:41;0.00;99.90
44695;DHT22;32845;59.422;17.930;2022-12-05T11:26:35;0.00;99.90
44695;DHT22;32845;59.422;17.930;2022-12-05T11:35:49;0.00;99.90
44695;DHT22;32845;59.422;17.930;2022-12-05T11:40:43;0.00;99.90
44695;DHT22;32845;59.422;17.930;2022-12-05T11:55:32;0.10;99.90
44695;DHT22;32845;59.422;17.930;2022-12-05T12:00:16;0.10;99.90
44695;DHT22;32845;59.422;17.930;2022-12-05T12:29:53;0.10;99.90
44695;DHT22;32845;59.422;17.930;2022-12-05T12:34:43;0.10;99.90
44695;DHT22;32845;59.422;17.930;2022-12-05T13:03:11;0.10;99.90
44695;DHT22;32845;59.422;17.930;2022-12-05T13:07:48;0.10;99.90
44695;DHT22;32845;59.422;17.930;2022-12-05T13:12:24;0.10;99.90
44695;DHT22;32845;59.422;17.930;2022-12-05T13:16:57;0.10;99.90
44695;DHT22;32845;59.422;17.930;2022-12-05T13:21:29;0.10;99.90
44695;DHT22;32845;59.422;17.930;2022-12-05T13:26:00;0.10;99.90
44695;DHT22;32845;59.422;17.930;2022-12-05T13:30:47;0.10;99.90
44695;DHT22;32845;59.422;17.930;2022-12-05T13:35:33;0.10;99.90
44695;DHT22;32845;59.422;17.930;2022-12-05T13:45:19;0.10;99.90
44695;DHT22;32845;59.422;17.930;2022-12-05T13:54:44;0.10;99.90
44695;DHT22;32845;59.422;17.930;2022-12-05T13:59:56;0.10;99.90
44695;DHT22;32845;59.422;17.930;2022-12-05T14:04:47;0.10;99.90
44695;DHT22;32845;59.422;17.930;2022-12-05T14:09:47;0.10;99.90
44695;DHT22;32845;59.422;17.930;2022-12-05T14:19:51;0.00;99.90
44695;DHT22;32845;59.422;17.930;2022-12-05T14:33:37;0.00;99.90
44695;DHT22;32845;59.422;17.930;2022-12-05T14:38:26;0.00;99.90
44695;DHT22;32845;59.422;17.930;2022-12-05T14:43:01;0.00;99.90
44695;DHT22;32845;59.422;17.930;2022-12-05T14:47:33;0.00;99.90
44695;DHT22;32845;59.422;17.930;2022-12-05T14:52:09;0.00;99.90
44695;DHT22;32845;59.422;17.930;2022-12-05T14:56:46;-0.10;99.90
44695;DHT22;32845;59.422;17.930;2022-12-05T15:01:19;-0.10;99.90
44695;DHT22;32845;59.422;17.930;2022-12-05T15:05:51;0.00;99.90
44695;DHT22;32845;59.422;17.930;2022-12-05T15:10:33;-0.10;99.90
44695;DHT22;32845;59.422;17.930;2022-12-05T15:20:03;0.00;99.90
44695;DHT22;32845;59.422;17.930;2022-12-05T15:24:37;0.00;99.90
44695;DHT22;32845;59.422;17.930;2022-12-05T15:29:10;-0.10;99.90
44695;DHT22;32845;59.422;17.930;2022-12-05T15:33:50;-0.10;99.90
44695;DHT22;32845;59.422;17.930;2022-12-05T15:38:29;-0.10;99.90
44695;DHT22;32845;59.422;17.930;2022-12-05T15:43:28;-0.10;99.90
44695;DHT22;32845;59.422;17.930;2022-12-05T16:01:48;-0.10;99.90
44695;DHT22;32845;59.422;17.930;2022-12-05T16:06:29;0.00;99.90
44695;DHT22;32845;59.422;17.930;2022-12-05T16:11:10;0.10;99.90
44695;DHT22;32845;59.422;17.930;2022-12-05T16:15:48;0.00;99.90
44695;DHT22;32845;59.422;17.930;2022-12-05T16:20:32;0.00;99.90
44695;DHT22;32845;59.422;17.930;2022-12-05T16:25:16;0.00;99.90
44695;DHT22;32845;59.422;17.930;2022-12-05T16:29:47;0.00;99.90
44695;DHT22;32845;59.422;17.930;2022-12-05T16:34:17;0.00;99.90
44695;DHT22;32845;59.422;17.930;2022-12-05T16:38:48;0.00;99.90
44695;DHT22;32845;59.422;17.930;2022-12-05T16:47:59;0.00;99.90
44695;DHT22;32845;59.422;17.930;2022-12-05T16:52:30;0.00;99.90
44695;DHT22;32845;59.422;17.930;2022-12-05T16:57:01;0.00;99.90
44695;DHT22;32845;59.422;17.930;2022-12-05T17:01:32;0.10;99.90
44695;DHT22;32845;59.422;17.930;2022-12-05T17:06:03;0.10;99.90
44695;DHT22;32845;59.422;17.930;2022-12-05T17:10:33;0.10;99.90
44695;DHT22;32845;59.422;17.930;2022-12-05T17:15:04;0.10;99.90
44695;DHT22;32845;59.422;17.930;2022-12-05T17:19:35;0.10;99.90
44695;DHT22;32845;59.422;17.930;2022-12-05T17:24:06;0.10;99.90
44695;DHT22;32845;59.422;17.930;2022-12-05T17:28:38;0.10;99.90
44695;DHT22;32845;59.422;17.930;2022-12-05T17:33:11;0.10;99.90
44695;DHT22;32845;59.422;17.930;2022-12-05T17:37:42;0.10;99.90
44695;DHT22;32845;59.422;17.930;2022-12-05T17:42:13;0.10;99.90
44695;DHT22;32845;59.422;17.930;2022-12-05T17:46:43;0.10;99.90
44695;DHT22;32845;59.422;17.930;2022-12-05T17:51:14;0.10;99.90
44695;DHT22;32845;59.422;17.930;2022-12-05T17:55:45;0.00;99.90
44695;DHT22;32845;59.422;17.930;2022-12-05T18:00:20;0.00;99.90
44695;DHT22;32845;59.422;17.930;2022-12-05T18:04:51;0.00;99.90
44695;DHT22;32845;59.422;17.930;2022-12-05T18:09:22;0.00;99.90
44695;DHT22;32845;59.422;17.930;2022-12-05T18:13:58;0.00;99.90
44695;DHT22;32845;59.422;17.930;2022-12-05T18:18:29;0.00;99.90
44695;DHT22;32845;59.422;17.930;2022-12-05T18:23:05;0.00;99.90
44695;DHT22;32845;59.422;17.930;2022-12-05T18:27:36;0.00;99.90
44695;DHT22;32845;59.422;17.930;2022-12-05T18:32:07;0.00;99.90
44695;DHT22;32845;59.422;17.930;2022-12-05T18:36:38;0.00;99.90
44695;DHT22;32845;59.422;17.930;2022-12-05T18:41:10;0.00;99.90
44695;DHT22;32845;59.422;17.930;2022-12-05T18:45:40;0.00;99.90
44695;DHT22;32845;59.422;17.930;2022-12-05T18:50:11;0.10;99.90
44695;DHT22;32845;59.422;17.930;2022-12-05T18:54:52;0.10;99.90
44695;DHT22;32845;59.422;17.930;2022-12-05T18:59:22;0.10;99.90
44695;DHT22;32845;59.422;17.930;2022-12-05T19:03:54;0.10;99.90
44695;DHT22;32845;59.422;17.930;2022-12-05T19:08:25;0.10;99.90
44695;DHT22;32845;59.422;17.930;2022-12-05T19:13:05;0.20;99.90
44695;DHT22;32845;59.422;17.930;2022-12-05T19:17:36;0.20;99.90
44695;DHT22;32845;59.422;17.930;2022-12-05T19:22:06;0.20;99.90
44695;DHT22;32845;59.422;17.930;2022-12-05T19:26:37;0.20;99.90
44695;DHT22;32845;59.422;17.930;2022-12-05T19:31:13;0.30;99.90
44695;DHT22;32845;59.422;17.930;2022-12-05T19:35:49;0.30;99.90
44695;DHT22;32845;59.422;17.930;2022-12-05T19:40:20;0.30;99.90
44695;DHT22;32845;59.422;17.930;2022-12-05T19:44:55;0.30;99.90
44695;DHT22;32845;59.422;17.930;2022-12-05T19:49:26;0.30;99.90
44695;DHT22;32845;59.422;17.930;2022-12-05T19:53:58;0.30;99.90
44695;DHT22;32845;59.422;17.930;2022-12-05T19:58:33;0.20;99.90
44695;DHT22;32845;59.422;17.930;2022-12-05T20:03:10;0.30;99.90
44695;DHT22;32845;59.422;17.930;2022-12-05T20:07:40;0.30;99.90
44695;DHT22;32845;59.422;17.930;2022-12-05T20:12:11;0.30;99.90
44695;DHT22;32845;59.422;17.930;2022-12-05T20:16:42;0.20;99.90
44695;DHT22;32845;59.422;17.930;2022-12-05T20:21:16;0.20;99.90
44695;DHT22;32845;59.422;17.930;2022-12-05T20:25:47;0.20;99.90
44695;DHT22;32845;59.422;17.930;2022-12-05T20:30:17;0.20;99.90
44695;DHT22;32845;59.422;17.930;2022-12-05T20:34:48;0.20;99.90
44695;DHT22;32845;59.422;17.930;2022-12-05T20:39:19;0.20;99.90
44695;DHT22;32845;59.422;17.930;2022-12-05T20:43:55;0.20;99.90
44695;DHT22;32845;59.422;17.930;2022-12-05T20:48:26;0.20;99.90
44695;DHT22;32845;59.422;17.930;2022-12-05T20:52:57;0.20;99.90
44695;DHT22;32845;59.422;17.930;2022-12-05T20:57:27;0.10;99.90
44695;DHT22;32845;59.422;17.930;2022-12-05T21:01:58;0.10;99.90
44695;DHT22;32845;59.422;17.930;2022-12-05T21:06:34;0.10;99.90
44695;DHT22;32845;59.422;17.930;2022-12-05T21:11:06;0.10;99.90
44695;DHT22;32845;59.422;17.930;2022-12-05T21:15:41;0.10;99.90
44695;DHT22;32845;59.422;17.930;2022-12-05T21:20:12;0.10;99.90
44695;DHT22;32845;59.422;17.930;2022-12-05T21:24:43;0.10;99.90
44695;DHT22;32845;59.422;17.930;2022-12-05T21:29:14;0.00;99.90
44695;DHT22;32845;59.422;17.930;2022-12-05T21:33:56;0.00;99.90
44695;DHT22;32845;59.422;17.930;2022-12-05T21:38:27;0.00;99.90
44695;DHT22;32845;59.422;17.930;2022-12-05T21:43:10;0.10;99.90
44695;DHT22;32845;59.422;17.930;2022-12-05T21:47:42;0.10;99.90
44695;DHT22;32845;59.422;17.930;2022-12-05T21:52:14;0.10;99.90
44695;DHT22;32845;59.422;17.930;2022-12-05T21:56:44;0.00;99.90
44695;DHT22;32845;59.422;17.930;2022-12-05T22:01:18;0.00;99.90
44695;DHT22;32845;59.422;17.930;2022-12-05T22:05:49;0.00;99.90
44695;DHT22;32845;59.422;17.930;2022-12-05T22:10:20;0.00;99.90
44695;DHT22;32845;59.422;17.930;2022-12-05T22:15:04;0.00;99.90
44695;DHT22;32845;59.422;17.930;2022-12-05T22:19:34;0.00;99.90
44695;DHT22;32845;59.422;17.930;2022-12-05T22:24:05;0.00;99.90
44695;DHT22;32845;59.422;17.930;2022-12-05T22:28:36;0.00;99.90
44695;DHT22;32845;59.422;17.930;2022-12-05T22:33:07;0.00;99.90
44695;DHT22;32845;59.422;17.930;2022-12-05T22:37:38;0.00;99.90
44695;DHT22;32845;59.422;17.930;2022-12-05T22:42:09;0.00;99.90
44695;DHT22;32845;59.422;17.930;2022-12-05T22:46:39;-0.10;99.90
44695;DHT22;32845;59.422;17.930;2022-12-05T22:51:10;0.00;99.90
44695;DHT22;32845;59.422;17.930;2022-12-05T22:55:47;-0.10;99.90
44695;DHT22;32845;59.422;17.930;2022-12-05T23:00:18;-0.10;99.90
44695;DHT22;32845;59.422;17.930;2022-12-05T23:04:48;0.00;99.90
44695;DHT22;32845;59.422;17.930;2022-12-05T23:09:19;0.00;99.90
44695;DHT22;32845;59.422;17.930;2022-12-05T23:13:50;-0.10;99.90
44695;DHT22;32845;59.422;17.930;2022-12-05T23:18:21;-0.10;99.90
44695;DHT22;32845;59.422;17.930;2022-12-05T23:22:52;-0.10;99.90
44695;DHT22;32845;59.422;17.930;2022-12-05T23:27:23;-0.20;99.90
44695;DHT22;32845;59.422;17.930;2022-12-05T23:31:54;-0.20;99.90
44695;DHT22;32845;59.422;17.930;2022-12-05T23:36:24;-0.20;99.90
44695;DHT22;32845;59.422;17.930;2022-12-05T23:41:06;-0.20;99.90
44695;DHT22;32845;59.422;17.930;2022-12-05T23:45:37;-0.30;99.90
44695;DHT22;32845;59.422;17.930;2022-12-05T23:50:08;-0.30;99.90
44695;DHT22;32845;59.422;17.930;2022-12-05T23:54:42;-0.30;99.90
44695;DHT22;32845;59.422;17.930;2022-12-05T23:59:13;-0.30;99.90
